When searching for properties, you can group property listings according to any of the blue headers. Click the desired header and the properties will sort alphabetically.

Sale Date Case # Property City Zip County Bid
07/07/2020 RMU-18-04254-6 1776 Boxwood Drive Nw Acworth 30102 Cobb Not Available
07/07/2020 AMI-17-02408-21 12550 Bethany Rd Alpharetta 30004 Fulton $561,100.00
07/07/2020 FAY-19-04569-4 1010 Dunning St Se Atlanta 30315 Fulton Not Available
07/07/2020 FAY-20-02098-1 1375 Sylvan Rd Sw Atlanta 30310 Fulton $133,000.00
07/07/2020 LMA-20-00902-1 2120 Ben Hill Road Atlanta 30344 Fulton $108,466.26
07/07/2020 LNC-19-05385-5 270 Crosstree Ln Ne Atlanta 30328 Fulton $244,777.48
07/07/2020 FAY-20-01966-1 2862 Cloverleaf Dr Se Atlanta 30316 DeKalb Not Available
07/07/2020 FAY-20-01967-1 3745 Lake Enclave Way Atlanta 30349 Fulton Not Available
07/07/2020 RLM-15-02715-13 435 Highland Ave Ne Unit 1419 Atlanta 30312 Fulton Not Available
07/07/2020 FAY-20-01869-1 453 Ashburton Ave Atlanta 30317 DeKalb Not Available
07/07/2020 FAY-19-07773-4 5381 Trentham Atlanta 30338 DeKalb $369,473.12
07/07/2020 LMA-19-07068-7 767 Tift Avenue Sw Atlanta 30310 Fulton $34,900.00
07/07/2020 SHP-18-06667-6 971 Davis Dr Atlanta 30327 Fulton $746,875.81
07/07/2020 FAY-18-05811-8 6312 Wellington Way Austell 30106 Cobb $69,275.82
07/07/2020 BVF-20-00247-2 1600 Dogwood Dr Bainbridge 39819 Decatur $99,800.00
07/07/2020 SPS-19-04656-1 4055 Folks Circle Blackshear 31516 Pierce Go to Auction.com
07/07/2020 BVF-17-03429-4 4529 W Horseshoe Rd Blackshear 31516 Pierce $34,800.00
07/07/2020 NAT-19-07301-3 289 Ratcliffe Rd Brunswick 31523 Glynn Go to Xome.com
07/07/2020 KCP-19-05929-3 105 Crestwood Cir Centerville 31028 Houston $86,900.00
07/07/2020 FAY-16-00824-3 79 Oakwood Manor Drive Chatsworth 30705 Murray $180,000.00
07/07/2020 AMI-20-01635-2 7092 Homer White Rd Clermont 30527 Hall $120,200.00
07/07/2020 FAY-20-02014-1 3690 Sugar Creek Ln Se Conyers 30094 Rockdale Not Available
07/07/2020 AMI-12-04763-26 125 Spring Valley Trace Covington 30016 Newton $161,440.19
07/07/2020 AMI-20-00195-7 2890 Willow Wisp Way Cumming 30040 Forsyth $201,500.00
07/07/2020 FAY-20-00454-2 2250 Alpha Dr Decatur 30032 DeKalb Not Available
07/07/2020 LMA-19-06748-2 3635 Broadview Court Decatur 30032 DeKalb Not Available
07/07/2020 NAT-19-07053-3 7263 Brittany Way Douglasville 30134 Douglas Go to Xome.com
07/07/2020 LMA-19-06476-3 2732 Miles Circle East Point 30344 Fulton $119,904.87
07/07/2020 PHL-19-06215-3 424 Midway Pointe Ellenwood 30294 Henry Not Available
07/07/2020 MTB-20-01047-3 892 Reynolds Rd Folkston 31537 Charlton $71,443.00
07/07/2020 PNY-20-01402-1 141 Calico Loop Grantville 30220 Coweta Go to Auction.com
07/07/2020 SHP-20-00127-1 117 Little Mccall Rd Guyton 31312 Effingham Go to Auction.com
07/07/2020 BVF-19-03164-1 385 Barlow Rd Hortense 31543 Brantley $83,602.21
07/07/2020 SHP-20-00768-2 5700 Deerfield Pl Kennesaw 30144 Cobb Go to Auction.com
07/07/2020 AMI-16-00052-5 2164 Cold Spring Cir Lithonia 30058 DeKalb $92,827.03
07/07/2020 SHP-19-04632-1 5806 Trent Walk Dr Lithonia 30038 DeKalb Go to Auction.com
07/07/2020 SPS-19-06628-5 74 Persimmon Blvd Ne Ludowici 31316 Long Go to Auction.com
07/07/2020 SNS-19-01326-13 2363 Monte Villa Courts Marietta 30062 Cobb $869,970.96
07/07/2020 LNC-19-03515-3 2914 Dellinger Dr Marietta 30062 Cobb $127,925.88
07/07/2020 SPS-19-00552-8 760 Levie Rd Montezuma 31063 Macon Go to Auction.com
07/07/2020 BVF-18-03989-7 6162 Griner Rd Patterson 31557 Pierce $33,192.18
07/07/2020 PNY-20-01964-1 245 Longleaf Cir Pooler 31322 Chatham $142,885.00
07/07/2020 SHP-20-00561-1 3883 Morning Dew Way Powder Springs 30127 Cobb Go to Auction.com
07/07/2020 FAY-20-01871-1 4030 Church St Red Oak 30272 Fulton $118,000.00
07/07/2020 LNC-19-03924-1 24 Cochran Dr Rossville 30741 Walker $35,100.00
07/07/2020 FAY-18-05643-1 3705 Eastgate Drive Savannah 31404 Chatham $82,948.14
07/07/2020 SHP-17-00728-1 5 Poor Clares Lane Savannah 31411 Chatham $401,342.40
07/07/2020 SPS-12-08974-8 633 W 46th Street Savannah 31405 Chatham Go to Hudsonmarshall.com
07/07/2020 AMI-20-02001-1 6993 Hwy 41 South Sycamore 31790 Turner $56,700.00
07/07/2020 AMI-16-04049-18 85 Taylors Gin Rd Temple 30179 Carroll $111,000.00
08/04/2020 RMU-20-02171-1 1921 Philema Rd Albany 31701 Lee Not Available
08/04/2020 FAY-20-02334-1 1570 Avon Ave Sw Atlanta 30311 Fulton Not Available
08/04/2020 FAY-20-02507-1 170 Robin Hood Rd Ne Atlanta 30309 Fulton Not Available
08/04/2020 RMU-19-04354-5 2045 Lenox Road Ne Atlanta 30324 Fulton Not Available
08/04/2020 LMA-20-02214-1 2252 Polar Rock Terrace Sw Atlanta 30315 Fulton Not Available
08/04/2020 SHP-19-07735-3 2475 Bouldercliff Way Se Atlanta 30316 DeKalb Go to Auction.com
08/04/2020 AMI-18-02636-9 250 Amal Dr Sw, Apt 8002 Atlanta 30315 Fulton Not Available
08/04/2020 FAY-20-02395-1 2770 Benjamin E Mays Dr Sw Atlanta 30311 Fulton Not Available
08/04/2020 VEL-20-02403-1 3557 Bolfair Drive Northwest Atlanta 30331 Fulton Not Available
08/04/2020 LMA-20-02243-1 3686 Venus Place Northwest Atlanta 30331 Fulton Not Available
08/04/2020 SPS-17-05306-2 375 Ralph Mcgill Blvd Atlanta 30312 Fulton Go to Hudsonmarshall.com
08/04/2020 BVF-17-05044-8 4810 Riggins Rd Blackshear 31516 Pierce Not Available
08/04/2020 CMS-16-03850-4 7650 Royston Rd Carnesville 30521 Franklin Go to Auction.com
08/04/2020 LNC-19-04433-1 6997 Strickland St Cobbtown 30420 Tattnall Go to Auction.com
08/04/2020 LHF-20-02318-2 1905 John Calvin Avenue College Park 30337 Fulton Not Available
08/04/2020 SHP-20-00476-1 2249 Gennings Ct Columbus 31907 Muscogee Go to Auction.com
08/04/2020 OCN-19-06656-3 2030 Spring Ct Se Conyers 30013 Rockdale Go to Auction.com
08/04/2020 NAT-18-07488-5 3277 Old Salem Road Conyers 30208 Rockdale Go to Auction.com
08/04/2020 FAY-20-00847-2 4000 Post Gate Dr Cumming 30040 Forsyth Not Available
08/04/2020 AMI-18-07196-8 1699 Little Fox Ln Dacula 30019 Gwinnett Not Available
08/04/2020 LMA-19-06780-2 2173 Rosewood Road Decatur 30032 DeKalb Not Available
08/04/2020 REG-20-02437-1 3745 Harmony Church Rd Gainesville 30507 Hall Bid Not Available
08/04/2020 AMI-20-01898-2 4817 Goddards Ford Rd Gainesville 30504 Hall Not Available
08/04/2020 SHP-20-00800-1 1622 Country Wood Dr Hoschton 30548 Gwinnett Go to Auction.com
08/04/2020 RTR-20-00348-1 7767 Amherst Ct Jonesboro 30236-2787 Clayton Not Available
08/04/2020 KCP-20-01295-2 1063 A Philema Rd N Leesburg 31763 Lee Not Available
08/04/2020 RLM-20-01881-1 5939 Fairing Drop Lithonia 30038 DeKalb Go to Auction.com
08/04/2020 AMI-19-06371-5 6410 Winston Trace Mcdonough 30252 Henry Not Available
08/04/2020 FAY-20-00483-2 4841 Brownsville Rd Powder Springs 30127 Cobb Not Available
08/04/2020 FAY-20-02151-1 5403 Beaver Lake Dr Powder Springs 30127 Cobb Not Available
08/04/2020 SPS-20-01721-1 23 Atteiram Drive Rome 30161 Floyd Not Available
08/04/2020 LMA-20-01755-1 1205 E 33rd St Savannah 31404 Chatham Not Available
08/04/2020 AMI-19-01386-6 40 E Wellwood Savannah 31419 Chatham Not Available
08/04/2020 SHP-20-00165-1 113 Julie Lane Stockbridge 30281 Henry Go to Auction.com
08/04/2020 FAY-20-01866-2 4873 Pinnacle Dr Stone Mountain 30088 DeKalb Not Available
08/04/2020 RMU-19-07564-3 2327 Waynesboro Highway Sylvania 30467 Screven Not Available
08/04/2020 SPS-18-02823-15 399 Meadow Lark Road Valdosta 31602 Brooks Go to Hudsonmarshall.com
08/04/2020 BVF-20-02159-1 1100 Pittsburgh Ave White Plains 30678 Greene Not Available
09/01/2020 SPS-19-07127-4 1089 Sherrington Drive Stone Mountain 30083 DeKalb Not Available